sensor_id;sensor_type;location;lat;lon;timestamp;P1;durP1;ratioP1;P2;durP2;ratioP2
7017;SDS011;3549;42.162;24.726;2023-08-20T00:01:18;18.43;;;13.87;;
7017;SDS011;3549;42.162;24.726;2023-08-20T00:03:49;18.37;;;13.93;;
7017;SDS011;3549;42.162;24.726;2023-08-20T00:06:15;17.90;;;13.90;;
7017;SDS011;3549;42.162;24.726;2023-08-20T00:08:41;16.00;;;13.50;;
7017;SDS011;3549;42.162;24.726;2023-08-20T00:11:06;20.13;;;14.20;;
7017;SDS011;3549;42.162;24.726;2023-08-20T00:13:31;17.27;;;13.33;;
7017;SDS011;3549;42.162;24.726;2023-08-20T00:15:57;18.03;;;14.53;;
7017;SDS011;3549;42.162;24.726;2023-08-20T00:18:23;19.57;;;13.93;;
7017;SDS011;3549;42.162;24.726;2023-08-20T00:20:48;20.00;;;13.80;;
7017;SDS011;3549;42.162;24.726;2023-08-20T00:23:14;19.47;;;14.00;;
7017;SDS011;3549;42.162;24.726;2023-08-20T00:25:40;17.47;;;14.80;;
7017;SDS011;3549;42.162;24.726;2023-08-20T00:28:05;19.80;;;14.47;;
7017;SDS011;3549;42.162;24.726;2023-08-20T00:30:31;17.97;;;13.93;;
7017;SDS011;3549;42.162;24.726;2023-08-20T00:32:56;19.70;;;14.27;;
7017;SDS011;3549;42.162;24.726;2023-08-20T00:35:21;18.87;;;13.63;;
7017;SDS011;3549;42.162;24.726;2023-08-20T00:37:47;19.10;;;14.33;;
7017;SDS011;3549;42.162;24.726;2023-08-20T00:40:12;16.93;;;13.87;;
7017;SDS011;3549;42.162;24.726;2023-08-20T00:42:38;19.17;;;14.37;;
7017;SDS011;3549;42.162;24.726;2023-08-20T00:45:04;20.67;;;13.87;;
7017;SDS011;3549;42.162;24.726;2023-08-20T00:47:29;17.50;;;14.33;;
7017;SDS011;3549;42.162;24.726;2023-08-20T00:49:55;18.87;;;14.17;;
7017;SDS011;3549;42.162;24.726;2023-08-20T00:52:21;20.17;;;14.50;;
7017;SDS011;3549;42.162;24.726;2023-08-20T00:54:47;18.87;;;14.17;;
7017;SDS011;3549;42.162;24.726;2023-08-20T00:57:14;16.73;;;13.70;;
7017;SDS011;3549;42.162;24.726;2023-08-20T00:59:40;23.10;;;15.33;;
7017;SDS011;3549;42.162;24.726;2023-08-20T01:02:07;21.40;;;14.77;;
7017;SDS011;3549;42.162;24.726;2023-08-20T01:04:32;22.23;;;15.73;;
7017;SDS011;3549;42.162;24.726;2023-08-20T01:12:29;19.30;;;15.40;;
7017;SDS011;3549;42.162;24.726;2023-08-20T01:14:56;18.93;;;15.57;;
7017;SDS011;3549;42.162;24.726;2023-08-20T01:17:21;20.10;;;15.77;;
7017;SDS011;3549;42.162;24.726;2023-08-20T01:19:47;19.37;;;15.73;;
7017;SDS011;3549;42.162;24.726;2023-08-20T01:22:30;19.53;;;16.43;;
7017;SDS011;3549;42.162;24.726;2023-08-20T01:30:34;21.07;;;15.90;;
7017;SDS011;3549;42.162;24.726;2023-08-20T01:33:00;20.60;;;16.37;;
7017;SDS011;3549;42.162;24.726;2023-08-20T01:35:26;21.50;;;16.53;;
7017;SDS011;3549;42.162;24.726;2023-08-20T01:37:52;19.47;;;16.13;;
7017;SDS011;3549;42.162;24.726;2023-08-20T01:40:17;20.03;;;16.10;;
7017;SDS011;3549;42.162;24.726;2023-08-20T01:42:43;20.63;;;16.23;;
7017;SDS011;3549;42.162;24.726;2023-08-20T01:45:08;20.63;;;16.67;;
7017;SDS011;3549;42.162;24.726;2023-08-20T01:47:34;20.33;;;16.67;;
7017;SDS011;3549;42.162;24.726;2023-08-20T01:50:00;20.30;;;15.80;;
7017;SDS011;3549;42.162;24.726;2023-08-20T01:52:25;21.37;;;16.80;;
7017;SDS011;3549;42.162;24.726;2023-08-20T01:54:50;23.60;;;16.70;;
7017;SDS011;3549;42.162;24.726;2023-08-20T01:57:18;21.70;;;16.33;;
7017;SDS011;3549;42.162;24.726;2023-08-20T01:59:43;20.43;;;16.47;;
7017;SDS011;3549;42.162;24.726;2023-08-20T02:02:09;22.40;;;17.03;;
7017;SDS011;3549;42.162;24.726;2023-08-20T02:04:35;20.40;;;16.30;;
7017;SDS011;3549;42.162;24.726;2023-08-20T02:07:01;23.03;;;17.13;;
7017;SDS011;3549;42.162;24.726;2023-08-20T02:09:26;20.40;;;16.90;;
7017;SDS011;3549;42.162;24.726;2023-08-20T02:11:52;21.80;;;17.17;;
7017;SDS011;3549;42.162;24.726;2023-08-20T02:14:17;24.77;;;17.80;;
7017;SDS011;3549;42.162;24.726;2023-08-20T02:16:43;24.47;;;17.33;;
7017;SDS011;3549;42.162;24.726;2023-08-20T02:19:09;22.33;;;16.70;;
7017;SDS011;3549;42.162;24.726;2023-08-20T02:21:35;21.53;;;16.63;;
7017;SDS011;3549;42.162;24.726;2023-08-20T02:24:00;22.30;;;17.47;;
7017;SDS011;3549;42.162;24.726;2023-08-20T02:26:26;23.97;;;18.10;;
7017;SDS011;3549;42.162;24.726;2023-08-20T02:28:51;23.70;;;17.00;;
7017;SDS011;3549;42.162;24.726;2023-08-20T02:31:17;25.30;;;17.30;;
7017;SDS011;3549;42.162;24.726;2023-08-20T02:33:42;22.77;;;17.43;;
7017;SDS011;3549;42.162;24.726;2023-08-20T02:36:07;22.00;;;17.13;;
7017;SDS011;3549;42.162;24.726;2023-08-20T02:38:33;20.83;;;17.07;;
7017;SDS011;3549;42.162;24.726;2023-08-20T02:40:58;22.10;;;16.80;;
7017;SDS011;3549;42.162;24.726;2023-08-20T02:43:24;20.80;;;15.57;;
7017;SDS011;3549;42.162;24.726;2023-08-20T02:45:49;20.07;;;15.33;;
7017;SDS011;3549;42.162;24.726;2023-08-20T02:48:15;19.10;;;16.03;;
7017;SDS011;3549;42.162;24.726;2023-08-20T02:50:41;21.20;;;15.90;;
7017;SDS011;3549;42.162;24.726;2023-08-20T02:53:06;20.17;;;15.17;;
7017;SDS011;3549;42.162;24.726;2023-08-20T02:55:32;21.07;;;16.43;;
7017;SDS011;3549;42.162;24.726;2023-08-20T02:57:58;21.20;;;16.17;;
7017;SDS011;3549;42.162;24.726;2023-08-20T03:00:24;20.70;;;15.00;;
7017;SDS011;3549;42.162;24.726;2023-08-20T03:02:50;21.07;;;15.27;;
7017;SDS011;3549;42.162;24.726;2023-08-20T03:05:15;22.83;;;16.13;;
7017;SDS011;3549;42.162;24.726;2023-08-20T03:07:40;19.87;;;15.50;;
7017;SDS011;3549;42.162;24.726;2023-08-20T03:10:06;19.73;;;15.10;;
7017;SDS011;3549;42.162;24.726;2023-08-20T03:12:32;20.70;;;15.77;;
7017;SDS011;3549;42.162;24.726;2023-08-20T03:14:59;22.63;;;16.00;;
7017;SDS011;3549;42.162;24.726;2023-08-20T03:17:25;20.57;;;15.70;;
7017;SDS011;3549;42.162;24.726;2023-08-20T03:19:57;20.73;;;15.67;;
7017;SDS011;3549;42.162;24.726;2023-08-20T03:22:24;18.67;;;15.30;;
7017;SDS011;3549;42.162;24.726;2023-08-20T03:24:50;19.60;;;15.27;;
7017;SDS011;3549;42.162;24.726;2023-08-20T03:27:16;17.93;;;13.87;;
7017;SDS011;3549;42.162;24.726;2023-08-20T03:29:42;18.60;;;13.70;;
7017;SDS011;3549;42.162;24.726;2023-08-20T03:32:07;16.70;;;14.10;;
7017;SDS011;3549;42.162;24.726;2023-08-20T03:34:33;18.77;;;14.53;;
7017;SDS011;3549;42.162;24.726;2023-08-20T03:36:58;20.30;;;14.60;;
7017;SDS011;3549;42.162;24.726;2023-08-20T03:39:24;20.10;;;14.57;;
7017;SDS011;3549;42.162;24.726;2023-08-20T03:41:52;20.70;;;14.47;;
7017;SDS011;3549;42.162;24.726;2023-08-20T03:44:17;21.23;;;15.00;;
7017;SDS011;3549;42.162;24.726;2023-08-20T03:46:43;18.03;;;14.30;;
7017;SDS011;3549;42.162;24.726;2023-08-20T03:49:08;20.00;;;14.53;;
7017;SDS011;3549;42.162;24.726;2023-08-20T03:51:34;22.97;;;14.50;;
7017;SDS011;3549;42.162;24.726;2023-08-20T03:53:59;21.73;;;14.60;;
7017;SDS011;3549;42.162;24.726;2023-08-20T03:56:25;19.97;;;14.50;;
7017;SDS011;3549;42.162;24.726;2023-08-20T03:58:50;16.47;;;12.40;;
7017;SDS011;3549;42.162;24.726;2023-08-20T04:01:15;17.87;;;13.10;;
7017;SDS011;3549;42.162;24.726;2023-08-20T04:03:41;18.23;;;12.90;;
7017;SDS011;3549;42.162;24.726;2023-08-20T04:06:06;42.63;;;15.00;;
7017;SDS011;3549;42.162;24.726;2023-08-20T04:08:32;22.93;;;15.10;;
7017;SDS011;3549;42.162;24.726;2023-08-20T04:10:57;21.33;;;15.07;;
7017;SDS011;3549;42.162;24.726;2023-08-20T04:13:23;21.77;;;15.33;;
7017;SDS011;3549;42.162;24.726;2023-08-20T04:15:48;21.50;;;15.53;;
7017;SDS011;3549;42.162;24.726;2023-08-20T04:18:13;22.30;;;14.43;;
7017;SDS011;3549;42.162;24.726;2023-08-20T04:20:39;19.47;;;14.73;;
7017;SDS011;3549;42.162;24.726;2023-08-20T04:23:04;21.40;;;14.77;;
7017;SDS011;3549;42.162;24.726;2023-08-20T04:25:30;17.77;;;14.40;;
7017;SDS011;3549;42.162;24.726;2023-08-20T04:27:55;22.73;;;14.03;;
7017;SDS011;3549;42.162;24.726;2023-08-20T04:30:21;18.70;;;14.30;;
7017;SDS011;3549;42.162;24.726;2023-08-20T04:32:46;18.50;;;13.63;;
7017;SDS011;3549;42.162;24.726;2023-08-20T04:35:12;16.83;;;13.83;;
7017;SDS011;3549;42.162;24.726;2023-08-20T04:37:37;21.03;;;13.90;;
7017;SDS011;3549;42.162;24.726;2023-08-20T04:40:03;20.80;;;15.03;;
7017;SDS011;3549;42.162;24.726;2023-08-20T04:42:33;20.70;;;14.47;;
7017;SDS011;3549;42.162;24.726;2023-08-20T04:44:58;19.30;;;14.30;;
7017;SDS011;3549;42.162;24.726;2023-08-20T04:47:24;17.97;;;14.37;;
7017;SDS011;3549;42.162;24.726;2023-08-20T04:49:49;20.37;;;15.10;;
7017;SDS011;3549;42.162;24.726;2023-08-20T04:52:15;21.23;;;15.20;;
7017;SDS011;3549;42.162;24.726;2023-08-20T04:54:40;20.57;;;15.07;;
7017;SDS011;3549;42.162;24.726;2023-08-20T04:57:06;22.97;;;16.00;;
7017;SDS011;3549;42.162;24.726;2023-08-20T04:59:31;20.17;;;15.87;;
7017;SDS011;3549;42.162;24.726;2023-08-20T05:01:56;19.43;;;15.03;;
7017;SDS011;3549;42.162;24.726;2023-08-20T05:04:22;21.27;;;15.40;;
7017;SDS011;3549;42.162;24.726;2023-08-20T05:06:47;17.63;;;13.93;;
7017;SDS011;3549;42.162;24.726;2023-08-20T05:09:13;22.57;;;13.93;;
7017;SDS011;3549;42.162;24.726;2023-08-20T05:11:38;20.77;;;13.57;;
7017;SDS011;3549;42.162;24.726;2023-08-20T05:14:04;16.63;;;13.93;;
7017;SDS011;3549;42.162;24.726;2023-08-20T05:16:29;18.23;;;13.73;;
7017;SDS011;3549;42.162;24.726;2023-08-20T05:18:54;23.97;;;14.13;;
7017;SDS011;3549;42.162;24.726;2023-08-20T05:21:20;19.00;;;15.23;;
7017;SDS011;3549;42.162;24.726;2023-08-20T05:23:45;21.57;;;15.47;;
7017;SDS011;3549;42.162;24.726;2023-08-20T05:26:11;20.37;;;14.80;;
7017;SDS011;3549;42.162;24.726;2023-08-20T05:28:36;19.73;;;14.90;;
7017;SDS011;3549;42.162;24.726;2023-08-20T05:31:01;25.27;;;15.70;;
7017;SDS011;3549;42.162;24.726;2023-08-20T05:33:27;22.10;;;14.80;;
7017;SDS011;3549;42.162;24.726;2023-08-20T05:35:52;20.17;;;13.93;;
7017;SDS011;3549;42.162;24.726;2023-08-20T05:38:18;20.13;;;14.40;;
7017;SDS011;3549;42.162;24.726;2023-08-20T05:40:43;19.90;;;14.70;;
7017;SDS011;3549;42.162;24.726;2023-08-20T05:43:09;21.40;;;13.97;;
7017;SDS011;3549;42.162;24.726;2023-08-20T05:45:36;18.40;;;14.77;;
7017;SDS011;3549;42.162;24.726;2023-08-20T05:48:01;19.97;;;15.73;;
7017;SDS011;3549;42.162;24.726;2023-08-20T05:50:26;22.07;;;15.23;;
7017;SDS011;3549;42.162;24.726;2023-08-20T05:52:52;25.20;;;14.83;;
7017;SDS011;3549;42.162;24.726;2023-08-20T05:55:18;21.23;;;14.20;;
7017;SDS011;3549;42.162;24.726;2023-08-20T05:57:43;21.17;;;15.10;;
7017;SDS011;3549;42.162;24.726;2023-08-20T06:00:09;24.53;;;15.60;;
7017;SDS011;3549;42.162;24.726;2023-08-20T06:02:36;20.30;;;15.30;;
7017;SDS011;3549;42.162;24.726;2023-08-20T06:05:02;21.53;;;15.67;;
7017;SDS011;3549;42.162;24.726;2023-08-20T06:07:29;17.17;;;13.90;;
7017;SDS011;3549;42.162;24.726;2023-08-20T06:09:55;18.43;;;14.93;;
7017;SDS011;3549;42.162;24.726;2023-08-20T06:12:21;19.67;;;15.20;;
7017;SDS011;3549;42.162;24.726;2023-08-20T06:14:47;18.40;;;14.67;;
7017;SDS011;3549;42.162;24.726;2023-08-20T06:17:13;18.27;;;14.83;;
7017;SDS011;3549;42.162;24.726;2023-08-20T06:19:38;18.07;;;14.90;;
7017;SDS011;3549;42.162;24.726;2023-08-20T06:22:03;19.37;;;14.13;;
7017;SDS011;3549;42.162;24.726;2023-08-20T06:24:29;18.00;;;14.57;;
7017;SDS011;3549;42.162;24.726;2023-08-20T06:26:54;16.00;;;13.87;;
7017;SDS011;3549;42.162;24.726;2023-08-20T06:29:20;18.33;;;14.47;;
7017;SDS011;3549;42.162;24.726;2023-08-20T06:31:47;18.43;;;14.33;;
7017;SDS011;3549;42.162;24.726;2023-08-20T06:34:13;19.50;;;14.53;;
7017;SDS011;3549;42.162;24.726;2023-08-20T06:36:38;19.37;;;14.73;;
7017;SDS011;3549;42.162;24.726;2023-08-20T06:39:03;19.07;;;14.53;;
7017;SDS011;3549;42.162;24.726;2023-08-20T06:41:29;19.37;;;14.07;;
7017;SDS011;3549;42.162;24.726;2023-08-20T06:43:54;16.73;;;13.83;;
7017;SDS011;3549;42.162;24.726;2023-08-20T06:46:20;14.80;;;13.20;;
7017;SDS011;3549;42.162;24.726;2023-08-20T06:48:45;16.10;;;13.07;;
7017;SDS011;3549;42.162;24.726;2023-08-20T06:51:14;16.63;;;12.63;;
7017;SDS011;3549;42.162;24.726;2023-08-20T06:53:42;16.45;;;12.90;;
7017;SDS011;3549;42.162;24.726;2023-08-20T06:56:08;16.63;;;12.30;;
7017;SDS011;3549;42.162;24.726;2023-08-20T06:58:34;15.77;;;14.02;;
7017;SDS011;3549;42.162;24.726;2023-08-20T07:01:00;15.20;;;12.55;;
7017;SDS011;3549;42.162;24.726;2023-08-20T07:06:05;14.45;;;12.70;;
7017;SDS011;3549;42.162;24.726;2023-08-20T07:08:31;16.48;;;13.18;;
7017;SDS011;3549;42.162;24.726;2023-08-20T07:10:56;16.58;;;12.25;;
7017;SDS011;3549;42.162;24.726;2023-08-20T07:13:22;13.40;;;11.90;;
7017;SDS011;3549;42.162;24.726;2023-08-20T07:15:48;15.57;;;12.10;;
7017;SDS011;3549;42.162;24.726;2023-08-20T07:18:13;15.15;;;12.50;;
7017;SDS011;3549;42.162;24.726;2023-08-20T07:20:41;18.95;;;12.82;;
7017;SDS011;3549;42.162;24.726;2023-08-20T07:23:07;15.90;;;12.43;;
7017;SDS011;3549;42.162;24.726;2023-08-20T07:25:33;12.77;;;11.48;;
7017;SDS011;3549;42.162;24.726;2023-08-20T07:28:01;16.95;;;13.57;;
7017;SDS011;3549;42.162;24.726;2023-08-20T07:30:27;13.43;;;11.82;;
7017;SDS011;3549;42.162;24.726;2023-08-20T07:32:53;17.55;;;14.30;;
7017;SDS011;3549;42.162;24.726;2023-08-20T07:35:18;16.23;;;12.90;;
7017;SDS011;3549;42.162;24.726;2023-08-20T07:37:44;16.27;;;12.32;;
7017;SDS011;3549;42.162;24.726;2023-08-20T07:40:11;15.30;;;13.52;;
7017;SDS011;3549;42.162;24.726;2023-08-20T07:42:37;14.02;;;12.20;;
7017;SDS011;3549;42.162;24.726;2023-08-20T07:45:02;14.15;;;11.82;;
7017;SDS011;3549;42.162;24.726;2023-08-20T07:47:28;14.07;;;12.02;;
7017;SDS011;3549;42.162;24.726;2023-08-20T07:49:56;19.10;;;14.18;;
7017;SDS011;3549;42.162;24.726;2023-08-20T07:52:21;17.33;;;11.98;;
7017;SDS011;3549;42.162;24.726;2023-08-20T07:54:47;16.50;;;12.48;;
7017;SDS011;3549;42.162;24.726;2023-08-20T07:57:12;14.18;;;12.68;;
7017;SDS011;3549;42.162;24.726;2023-08-20T07:59:37;18.48;;;14.05;;
7017;SDS011;3549;42.162;24.726;2023-08-20T08:02:03;16.40;;;12.65;;
7017;SDS011;3549;42.162;24.726;2023-08-20T08:04:28;16.38;;;12.18;;
7017;SDS011;3549;42.162;24.726;2023-08-20T08:06:54;14.38;;;12.40;;
7017;SDS011;3549;42.162;24.726;2023-08-20T08:09:29;14.07;;;11.73;;
7017;SDS011;3549;42.162;24.726;2023-08-20T08:11:56;18.63;;;11.70;;
7017;SDS011;3549;42.162;24.726;2023-08-20T08:14:22;13.13;;;11.38;;
7017;SDS011;3549;42.162;24.726;2023-08-20T08:16:48;15.48;;;11.68;;
7017;SDS011;3549;42.162;24.726;2023-08-20T08:19:14;13.27;;;10.82;;
7017;SDS011;3549;42.162;24.726;2023-08-20T08:21:40;13.65;;;10.75;;
7017;SDS011;3549;42.162;24.726;2023-08-20T08:24:06;13.63;;;11.43;;
7017;SDS011;3549;42.162;24.726;2023-08-20T08:26:33;12.73;;;11.13;;
7017;SDS011;3549;42.162;24.726;2023-08-20T08:29:00;17.23;;;11.63;;
7017;SDS011;3549;42.162;24.726;2023-08-20T08:31:26;11.80;;;10.55;;
7017;SDS011;3549;42.162;24.726;2023-08-20T08:33:51;13.65;;;10.63;;
7017;SDS011;3549;42.162;24.726;2023-08-20T08:36:16;10.70;;;9.60;;
7017;SDS011;3549;42.162;24.726;2023-08-20T08:38:45;11.85;;;9.80;;
7017;SDS011;3549;42.162;24.726;2023-08-20T08:41:11;12.27;;;9.63;;
7017;SDS011;3549;42.162;24.726;2023-08-20T08:43:38;13.13;;;9.95;;
7017;SDS011;3549;42.162;24.726;2023-08-20T08:46:07;10.93;;;9.82;;
7017;SDS011;3549;42.162;24.726;2023-08-20T08:48:37;11.57;;;10.10;;
7017;SDS011;3549;42.162;24.726;2023-08-20T08:51:05;11.15;;;10.05;;
7017;SDS011;3549;42.162;24.726;2023-08-20T08:53:30;11.27;;;9.57;;
7017;SDS011;3549;42.162;24.726;2023-08-20T08:55:58;12.07;;;9.35;;
7017;SDS011;3549;42.162;24.726;2023-08-20T08:58:24;11.68;;;10.43;;
7017;SDS011;3549;42.162;24.726;2023-08-20T09:00:50;10.48;;;8.82;;
7017;SDS011;3549;42.162;24.726;2023-08-20T09:03:16;9.88;;;8.60;;
7017;SDS011;3549;42.162;24.726;2023-08-20T09:05:48;10.73;;;9.30;;
7017;SDS011;3549;42.162;24.726;2023-08-20T09:08:28;10.00;;;8.80;;
7017;SDS011;3549;42.162;24.726;2023-08-20T09:10:57;12.80;;;9.70;;
7017;SDS011;3549;42.162;24.726;2023-08-20T09:13:34;10.25;;;8.75;;
7017;SDS011;3549;42.162;24.726;2023-08-20T09:16:02;10.20;;;8.77;;
7017;SDS011;3549;42.162;24.726;2023-08-20T09:18:29;20.42;;;16.58;;
7017;SDS011;3549;42.162;24.726;2023-08-20T09:20:56;13.35;;;10.75;;
7017;SDS011;3549;42.162;24.726;2023-08-20T09:23:22;11.73;;;9.13;;
7017;SDS011;3549;42.162;24.726;2023-08-20T09:25:47;10.23;;;9.00;;
7017;SDS011;3549;42.162;24.726;2023-08-20T09:28:13;12.68;;;9.95;;
7017;SDS011;3549;42.162;24.726;2023-08-20T09:30:39;12.50;;;8.98;;
7017;SDS011;3549;42.162;24.726;2023-08-20T09:33:12;12.10;;;9.50;;
7017;SDS011;3549;42.162;24.726;2023-08-20T09:35:50;11.13;;;9.07;;
7017;SDS011;3549;42.162;24.726;2023-08-20T09:38:18;10.07;;;9.02;;
7017;SDS011;3549;42.162;24.726;2023-08-20T09:40:47;11.63;;;9.68;;
7017;SDS011;3549;42.162;24.726;2023-08-20T09:43:15;10.55;;;9.38;;
7017;SDS011;3549;42.162;24.726;2023-08-20T09:45:41;11.23;;;9.45;;
7017;SDS011;3549;42.162;24.726;2023-08-20T09:48:07;11.60;;;9.80;;
7017;SDS011;3549;42.162;24.726;2023-08-20T09:50:35;12.68;;;9.18;;
7017;SDS011;3549;42.162;24.726;2023-08-20T09:53:06;11.18;;;8.52;;
7017;SDS011;3549;42.162;24.726;2023-08-20T09:55:40;11.75;;;10.38;;
7017;SDS011;3549;42.162;24.726;2023-08-20T09:58:08;19.65;;;16.83;;
7017;SDS011;3549;42.162;24.726;2023-08-20T10:00:35;12.82;;;10.88;;
7017;SDS011;3549;42.162;24.726;2023-08-20T10:03:01;11.55;;;8.90;;
7017;SDS011;3549;42.162;24.726;2023-08-20T10:05:27;18.65;;;15.52;;
7017;SDS011;3549;42.162;24.726;2023-08-20T10:07:54;12.88;;;11.40;;
7017;SDS011;3549;42.162;24.726;2023-08-20T10:10:20;13.90;;;8.73;;
7017;SDS011;3549;42.162;24.726;2023-08-20T10:12:46;11.45;;;9.73;;
7017;SDS011;3549;42.162;24.726;2023-08-20T10:15:13;12.48;;;8.52;;
7017;SDS011;3549;42.162;24.726;2023-08-20T10:17:41;11.65;;;9.48;;
7017;SDS011;3549;42.162;24.726;2023-08-20T10:20:07;11.40;;;9.57;;
7017;SDS011;3549;42.162;24.726;2023-08-20T10:22:39;12.30;;;10.27;;
7017;SDS011;3549;42.162;24.726;2023-08-20T10:25:06;9.48;;;8.38;;
7017;SDS011;3549;42.162;24.726;2023-08-20T10:27:34;12.57;;;10.70;;
7017;SDS011;3549;42.162;24.726;2023-08-20T10:30:01;10.38;;;8.45;;
7017;SDS011;3549;42.162;24.726;2023-08-20T10:38:00;9.48;;;7.82;;
7017;SDS011;3549;42.162;24.726;2023-08-20T10:46:06;9.43;;;7.78;;
7017;SDS011;3549;42.162;24.726;2023-08-20T10:48:36;9.93;;;8.50;;
7017;SDS011;3549;42.162;24.726;2023-08-20T10:51:13;10.10;;;7.35;;
7017;SDS011;3549;42.162;24.726;2023-08-20T10:53:41;7.95;;;7.15;;
7017;SDS011;3549;42.162;24.726;2023-08-20T10:56:11;9.70;;;7.10;;
7017;SDS011;3549;42.162;24.726;2023-08-20T10:58:41;9.10;;;7.32;;
7017;SDS011;3549;42.162;24.726;2023-08-20T11:01:20;8.10;;;7.30;;
7017;SDS011;3549;42.162;24.726;2023-08-20T11:03:48;9.93;;;7.05;;
7017;SDS011;3549;42.162;24.726;2023-08-20T11:06:15;8.07;;;7.18;;
7017;SDS011;3549;42.162;24.726;2023-08-20T11:08:42;13.38;;;7.70;;
7017;SDS011;3549;42.162;24.726;2023-08-20T11:11:08;8.68;;;7.30;;
7017;SDS011;3549;42.162;24.726;2023-08-20T11:13:34;8.73;;;7.70;;
7017;SDS011;3549;42.162;24.726;2023-08-20T11:16:01;8.68;;;7.10;;
7017;SDS011;3549;42.162;24.726;2023-08-20T11:18:28;9.77;;;7.90;;
7017;SDS011;3549;42.162;24.726;2023-08-20T11:20:54;9.75;;;7.88;;
7017;SDS011;3549;42.162;24.726;2023-08-20T11:23:20;8.35;;;7.53;;
7017;SDS011;3549;42.162;24.726;2023-08-20T11:25:47;8.13;;;7.32;;
7017;SDS011;3549;42.162;24.726;2023-08-20T11:28:12;9.43;;;7.00;;
7017;SDS011;3549;42.162;24.726;2023-08-20T11:30:38;7.57;;;6.80;;
7017;SDS011;3549;42.162;24.726;2023-08-20T11:33:03;7.55;;;6.80;;
7017;SDS011;3549;42.162;24.726;2023-08-20T11:35:30;7.97;;;7.18;;
7017;SDS011;3549;42.162;24.726;2023-08-20T11:37:56;9.02;;;7.63;;
7017;SDS011;3549;42.162;24.726;2023-08-20T11:40:21;8.13;;;6.93;;
7017;SDS011;3549;42.162;24.726;2023-08-20T11:42:48;8.65;;;7.28;;
7017;SDS011;3549;42.162;24.726;2023-08-20T11:45:13;7.93;;;7.13;;
7017;SDS011;3549;42.162;24.726;2023-08-20T11:47:39;7.93;;;7.13;;
7017;SDS011;3549;42.162;24.726;2023-08-20T11:50:05;7.80;;;7.10;;
7017;SDS011;3549;42.162;24.726;2023-08-20T11:52:32;8.15;;;6.90;;
7017;SDS011;3549;42.162;24.726;2023-08-20T11:54:58;9.18;;;7.20;;
7017;SDS011;3549;42.162;24.726;2023-08-20T11:57:25;7.60;;;6.90;;
7017;SDS011;3549;42.162;24.726;2023-08-20T11:59:51;7.63;;;6.93;;
7017;SDS011;3549;42.162;24.726;2023-08-20T12:02:24;7.82;;;7.05;;
7017;SDS011;3549;42.162;24.726;2023-08-20T12:04:50;8.18;;;7.28;;
7017;SDS011;3549;42.162;24.726;2023-08-20T12:07:16;7.55;;;6.75;;
7017;SDS011;3549;42.162;24.726;2023-08-20T12:09:41;8.60;;;6.70;;
7017;SDS011;3549;42.162;24.726;2023-08-20T12:12:07;8.02;;;6.63;;
7017;SDS011;3549;42.162;24.726;2023-08-20T12:14:37;8.40;;;6.93;;
7017;SDS011;3549;42.162;24.726;2023-08-20T12:17:02;8.18;;;6.93;;
7017;SDS011;3549;42.162;24.726;2023-08-20T12:19:31;7.63;;;6.80;;
7017;SDS011;3549;42.162;24.726;2023-08-20T12:21:56;7.63;;;6.70;;
7017;SDS011;3549;42.162;24.726;2023-08-20T12:24:21;7.57;;;6.78;;
7017;SDS011;3549;42.162;24.726;2023-08-20T12:26:47;8.43;;;6.75;;
7017;SDS011;3549;42.162;24.726;2023-08-20T12:29:13;8.45;;;6.63;;
7017;SDS011;3549;42.162;24.726;2023-08-20T12:31:38;7.35;;;6.55;;
7017;SDS011;3549;42.162;24.726;2023-08-20T12:34:05;7.72;;;6.93;;
7017;SDS011;3549;42.162;24.726;2023-08-20T12:36:30;7.10;;;6.50;;
7017;SDS011;3549;42.162;24.726;2023-08-20T12:38:56;7.25;;;6.53;;
7017;SDS011;3549;42.162;24.726;2023-08-20T12:41:21;7.38;;;6.65;;
7017;SDS011;3549;42.162;24.726;2023-08-20T12:43:47;8.35;;;6.65;;
7017;SDS011;3549;42.162;24.726;2023-08-20T12:46:12;7.20;;;6.50;;
7017;SDS011;3549;42.162;24.726;2023-08-20T12:48:38;7.35;;;6.63;;
7017;SDS011;3549;42.162;24.726;2023-08-20T12:51:04;7.60;;;6.80;;
7017;SDS011;3549;42.162;24.726;2023-08-20T12:53:30;7.40;;;6.70;;
7017;SDS011;3549;42.162;24.726;2023-08-20T12:55:56;8.85;;;6.97;;
7017;SDS011;3549;42.162;24.726;2023-08-20T12:58:22;7.57;;;6.70;;
7017;SDS011;3549;42.162;24.726;2023-08-20T13:00:48;7.70;;;6.50;;
7017;SDS011;3549;42.162;24.726;2023-08-20T13:03:14;12.23;;;6.93;;
7017;SDS011;3549;42.162;24.726;2023-08-20T13:05:39;7.38;;;6.68;;
7017;SDS011;3549;42.162;24.726;2023-08-20T13:08:05;7.60;;;6.82;;
7017;SDS011;3549;42.162;24.726;2023-08-20T13:10:31;10.55;;;6.85;;
7017;SDS011;3549;42.162;24.726;2023-08-20T13:12:59;8.10;;;6.40;;
7017;SDS011;3549;42.162;24.726;2023-08-20T13:15:26;7.75;;;6.57;;
7017;SDS011;3549;42.162;24.726;2023-08-20T13:17:52;9.43;;;6.50;;
7017;SDS011;3549;42.162;24.726;2023-08-20T13:20:18;7.50;;;6.57;;
7017;SDS011;3549;42.162;24.726;2023-08-20T13:22:49;8.02;;;6.40;;
7017;SDS011;3549;42.162;24.726;2023-08-20T13:25:14;7.68;;;6.88;;
7017;SDS011;3549;42.162;24.726;2023-08-20T13:27:40;7.88;;;6.60;;
7017;SDS011;3549;42.162;24.726;2023-08-20T13:30:06;7.20;;;6.50;;
7017;SDS011;3549;42.162;24.726;2023-08-20T13:32:33;7.28;;;6.53;;
7017;SDS011;3549;42.162;24.726;2023-08-20T13:35:02;9.70;;;6.45;;
7017;SDS011;3549;42.162;24.726;2023-08-20T13:37:31;7.38;;;6.13;;
7017;SDS011;3549;42.162;24.726;2023-08-20T13:39:58;8.77;;;6.28;;
7017;SDS011;3549;42.162;24.726;2023-08-20T13:42:24;7.07;;;6.10;;
7017;SDS011;3549;42.162;24.726;2023-08-20T13:44:49;8.48;;;6.00;;
7017;SDS011;3549;42.162;24.726;2023-08-20T13:47:15;8.70;;;6.40;;
7017;SDS011;3549;42.162;24.726;2023-08-20T13:49:40;9.38;;;6.53;;
7017;SDS011;3549;42.162;24.726;2023-08-20T13:52:09;7.15;;;6.47;;
7017;SDS011;3549;42.162;24.726;2023-08-20T13:54:35;7.40;;;6.70;;
7017;SDS011;3549;42.162;24.726;2023-08-20T13:57:01;6.70;;;6.03;;
7017;SDS011;3549;42.162;24.726;2023-08-20T13:59:28;9.93;;;6.60;;
7017;SDS011;3549;42.162;24.726;2023-08-20T14:01:53;9.00;;;6.47;;
7017;SDS011;3549;42.162;24.726;2023-08-20T14:04:18;8.70;;;6.53;;
7017;SDS011;3549;42.162;24.726;2023-08-20T14:06:44;7.28;;;6.47;;
7017;SDS011;3549;42.162;24.726;2023-08-20T14:09:09;7.32;;;6.63;;
7017;SDS011;3549;42.162;24.726;2023-08-20T14:11:35;6.88;;;6.28;;
7017;SDS011;3549;42.162;24.726;2023-08-20T14:14:00;8.40;;;6.28;;
7017;SDS011;3549;42.162;24.726;2023-08-20T14:16:25;7.03;;;6.28;;
7017;SDS011;3549;42.162;24.726;2023-08-20T14:18:51;8.50;;;6.53;;
7017;SDS011;3549;42.162;24.726;2023-08-20T14:21:16;7.13;;;6.35;;
7017;SDS011;3549;42.162;24.726;2023-08-20T14:23:42;7.10;;;6.40;;
7017;SDS011;3549;42.162;24.726;2023-08-20T14:26:07;7.38;;;6.50;;
7017;SDS011;3549;42.162;24.726;2023-08-20T14:28:33;7.20;;;6.05;;
7017;SDS011;3549;42.162;24.726;2023-08-20T14:31:01;9.05;;;6.60;;
7017;SDS011;3549;42.162;24.726;2023-08-20T14:33:28;9.07;;;6.28;;
7017;SDS011;3549;42.162;24.726;2023-08-20T14:35:54;7.88;;;6.30;;
7017;SDS011;3549;42.162;24.726;2023-08-20T14:38:21;9.23;;;6.40;;
7017;SDS011;3549;42.162;24.726;2023-08-20T14:40:46;6.80;;;6.15;;
7017;SDS011;3549;42.162;24.726;2023-08-20T14:43:12;9.88;;;6.45;;
7017;SDS011;3549;42.162;24.726;2023-08-20T14:45:37;7.07;;;6.38;;
7017;SDS011;3549;42.162;24.726;2023-08-20T14:48:03;7.45;;;6.15;;
7017;SDS011;3549;42.162;24.726;2023-08-20T14:50:29;8.68;;;6.60;;
7017;SDS011;3549;42.162;24.726;2023-08-20T14:52:54;9.73;;;6.63;;
7017;SDS011;3549;42.162;24.726;2023-08-20T14:55:20;7.43;;;6.35;;
7017;SDS011;3549;42.162;24.726;2023-08-20T14:57:45;7.10;;;6.45;;
7017;SDS011;3549;42.162;24.726;2023-08-20T15:00:12;6.60;;;6.00;;
7017;SDS011;3549;42.162;24.726;2023-08-20T15:02:46;8.57;;;6.10;;